Time;durP1;ratioP1;P1;durP2;ratioP2;P2;SDS_P1;SDS_P2;PMS_P1;PMS_P2;Temp;Humidity;BMP_temperature;BMP_pressure;BME280_temperature;BME280_humidity;BME280_pressure;Samples;Min_cycle;Max_cycle;Signal;HPM_P1;HPM_P2
2022/05/29 00:00:17;;;;;;;2.97;1.38;;;12.70;63.50;;;;;;4975209;28;20234;-78
2022/05/29 00:02:42;;;;;;;4.70;1.10;;;12.70;64.10;;;;;;4975995;28;20222;-78
2022/05/29 00:05:11;;;;;;;2.23;0.90;;;12.70;64.80;;;;;;4974721;28;20164;-78
2022/05/29 00:07:37;;;;;;;3.92;1.10;;;12.70;65.60;;;;;;4975679;28;20274;-78
2022/05/29 00:10:06;;;;;;;2.17;1.00;;;12.60;65.50;;;;;;4979068;28;20172;-77
2022/05/29 00:12:32;;;;;;;2.40;0.77;;;12.60;66.10;;;;;;4974335;28;20211;-78
2022/05/29 00:14:57;;;;;;;4.47;1.30;;;12.50;66.30;;;;;;4974454;28;20218;-78
2022/05/29 00:17:23;;;;;;;2.07;0.83;;;12.50;66.40;;;;;;4974157;28;20203;-78
2022/05/29 00:19:49;;;;;;;3.53;1.13;;;12.50;66.80;;;;;;4974908;28;20350;-78
2022/05/29 00:22:20;;;;;;;3.30;1.10;;;12.40;67.30;;;;;;4975459;28;20179;-78
2022/05/29 00:24:48;;;;;;;6.40;1.20;;;12.40;68.00;;;;;;4975277;28;20571;-78
2022/05/29 00:27:16;;;;;;;4.78;1.20;;;12.40;68.60;;;;;;4975397;28;20172;-78
2022/05/29 00:29:43;;;;;;;6.28;1.10;;;12.30;69.30;;;;;;4989694;28;20235;-78
2022/05/29 00:32:09;;;;;;;3.15;1.15;;;12.30;69.90;;;;;;4974177;28;20172;-78
2022/05/29 00:34:35;;;;;;;4.38;1.45;;;12.30;70.70;;;;;;4975378;28;20164;-78
2022/05/29 00:37:02;;;;;;;3.33;1.37;;;12.30;71.20;;;;;;4975251;28;20740;-78
2022/05/29 00:39:28;;;;;;;5.15;1.13;;;12.30;71.80;;;;;;4973365;28;20590;-78
2022/05/29 00:41:54;;;;;;;3.57;1.63;;;12.30;72.40;;;;;;4974618;28;20172;-78
2022/05/29 00:44:25;;;;;;;4.55;1.30;;;12.30;72.90;;;;;;4975339;28;20682;-78
2022/05/29 00:47:00;;;;;;;4.45;1.45;;;12.20;73.80;;;;;;4979073;28;20190;-78
2022/05/29 00:49:32;;;;;;;2.33;1.02;;;12.20;74.00;;;;;;4973502;28;20214;-77
2022/05/29 00:52:07;;;;;;;4.57;1.20;;;12.20;74.90;;;;;;4974706;28;20172;-78
2022/05/29 00:54:42;;;;;;;2.65;1.05;;;12.20;76.00;;;;;;4975731;28;20186;-77
2022/05/29 00:57:12;;;;;;;3.55;1.00;;;12.10;76.00;;;;;;4975021;28;20257;-77
2022/05/29 00:59:38;;;;;;;5.03;1.63;;;12.10;76.20;;;;;;4972559;28;20211;-77
2022/05/29 01:02:04;;;;;;;2.30;0.90;;;12.10;77.00;;;;;;4974842;28;20191;-78
2022/05/29 01:04:32;;;;;;;6.40;1.25;;;12.10;77.60;;;;;;4989772;28;20174;-78
2022/05/29 01:07:06;;;;;;;3.20;1.67;;;12.10;78.40;;;;;;4957433;28;20183;-78
2022/05/29 01:09:33;;;;;;;5.75;1.30;;;12.10;79.10;;;;;;4973782;28;20223;-77
2022/05/29 01:12:16;;;;;;;3.55;1.20;;;12.00;78.80;;;;;;4974349;28;20572;-78
2022/05/29 01:14:54;;;;;;;4.25;0.90;;;12.00;79.00;;;;;;4974622;28;20172;-78
2022/05/29 01:17:54;;;;;;;2.70;0.90;;;12.00;79.30;;;;;;4988834;28;20211;-78
2022/05/29 01:20:41;;;;;;;2.58;1.10;;;12.00;81.60;;;;;;4970573;28;20515;-78
2022/05/29 01:23:10;;;;;;;3.78;1.27;;;11.90;80.40;;;;;;4973164;28;20203;-78
2022/05/29 01:25:51;;;;;;;6.78;1.13;;;11.90;81.70;;;;;;4989462;28;20574;-78
2022/05/29 01:28:43;;;;;;;5.35;1.10;;;11.90;82.50;;;;;;4989319;28;20195;-78
2022/05/29 01:31:30;;;;;;;4.32;1.00;;;11.90;83.70;;;;;;4973095;28;20274;-78
2022/05/29 01:34:28;;;;;;;3.15;0.90;;;11.90;85.20;;;;;;4974269;28;20222;-78
2022/05/29 01:37:14;;;;;;;5.40;1.40;;;11.90;84.80;;;;;;4974204;28;20168;-78
2022/05/29 01:39:59;;;;;;;2.10;1.35;;;11.90;85.20;;;;;;4988363;28;20200;-78
2022/05/29 01:42:24;;;;;;;4.05;0.90;;;12.00;85.60;;;;;;4973948;28;20164;-78
2022/05/29 01:45:11;;;;;;;2.80;0.83;;;12.00;84.80;;;;;;4974148;28;20168;-78
2022/05/29 01:47:53;;;;;;;2.28;1.10;;;12.00;87.00;;;;;;4988820;28;20172;-78
2022/05/29 01:50:24;;;;;;;2.72;1.13;;;12.00;87.70;;;;;;4973090;28;20244;-79
2022/05/29 01:52:54;;;;;;;3.35;0.88;;;12.00;86.70;;;;;;4988613;28;20245;-78
2022/05/29 01:55:42;;;;;;;2.55;0.85;;;12.00;86.70;;;;;;4973602;28;20171;-77
2022/05/29 01:58:13;;;;;;;4.32;0.90;;;12.00;87.50;;;;;;4972224;28;20298;-77
2022/05/29 02:00:40;;;;;;;4.95;1.10;;;12.00;87.50;;;;;;4988461;28;20182;-77
2022/05/29 02:03:24;;;;;;;4.38;1.65;;;12.00;87.50;;;;;;4973840;28;20261;-78
2022/05/29 02:05:57;;;;;;;3.55;1.20;;;12.00;88.80;;;;;;4988736;28;20179;-78
2022/05/29 02:08:47;;;;;;;2.60;1.00;;;12.10;89.10;;;;;;4973281;28;20552;-77
2022/05/29 02:11:19;;;;;;;3.45;0.90;;;12.10;89.60;;;;;;4987680;28;20180;-78
2022/05/29 02:13:49;;;;;;;4.45;1.17;;;12.20;90.10;;;;;;4981283;28;20250;-78
2022/05/29 02:16:43;;;;;;;4.40;1.10;;;12.20;90.10;;;;;;5005046;28;20214;-78
2022/05/29 02:19:32;;;;;;;4.78;1.20;;;12.20;90.50;;;;;;5007317;28;20691;-78
2022/05/29 02:22:07;;;;;;;7.65;1.15;;;12.20;90.60;;;;;;5007655;28;20181;-78
2022/05/29 02:24:41;;;;;;;2.33;1.10;;;12.20;90.50;;;;;;4992741;28;20258;-78
2022/05/29 02:27:11;;;;;;;4.05;0.90;;;12.20;90.50;;;;;;4991463;28;20217;-78
2022/05/29 02:29:37;;;;;;;6.68;0.90;;;12.20;90.30;;;;;;4991955;28;20583;-79
2022/05/29 02:32:33;;;;;;;4.82;1.02;;;12.10;90.50;;;;;;4992551;28;20217;-78
2022/05/29 02:35:10;;;;;;;3.72;0.90;;;12.10;91.30;;;;;;4991970;28;20182;-77
2022/05/29 02:37:43;;;;;;;3.28;2.28;;;12.00;91.00;;;;;;4991645;28;20210;-77
2022/05/29 02:40:15;;;;;;;2.30;0.95;;;12.00;91.30;;;;;;4991181;28;20198;-78
2022/05/29 02:42:44;;;;;;;4.65;1.13;;;11.90;91.40;;;;;;4991468;28;20218;-78
2022/05/29 02:45:40;;;;;;;2.05;0.80;;;11.90;91.40;;;;;;4992370;28;20198;-77
2022/05/29 02:48:42;;;;;;;4.32;0.95;;;11.90;92.10;;;;;;4992362;28;20190;-77
2022/05/29 02:51:38;;;;;;;4.60;1.00;;;11.90;92.50;;;;;;4990223;28;20197;-77
2022/05/29 02:54:04;;;;;;;2.90;1.08;;;11.90;92.50;;;;;;4991141;28;20631;-77
2022/05/29 02:56:30;;;;;;;3.37;1.00;;;11.90;92.20;;;;;;4992461;28;20167;-78
2022/05/29 02:58:59;;;;;;;4.17;1.03;;;11.90;92.40;;;;;;4974981;28;20593;-77
2022/05/29 03:01:45;;;;;;;2.88;0.90;;;11.90;92.90;;;;;;5007118;28;20207;-77
2022/05/29 03:04:47;;;;;;;4.00;1.05;;;11.90;93.30;;;;;;5049594;22;20597;-79
2022/05/29 03:07:40;;;;;;;2.10;0.88;;;12.00;93.60;;;;;;5023241;28;20216;-79
2022/05/29 03:10:16;;;;;;;5.47;1.20;;;12.10;93.80;;;;;;5045096;28;20673;-79
2022/05/29 03:13:12;;;;;;;4.25;0.90;;;12.10;93.30;;;;;;5023495;28;20200;-79
2022/05/29 03:16:04;;;;;;;2.33;1.33;;;12.10;93.80;;;;;;5010686;28;20622;-79
2022/05/29 03:18:50;;;;;;;1.95;0.95;;;12.20;93.90;;;;;;5011809;28;20892;-79
2022/05/29 03:21:30;;;;;;;3.22;0.88;;;12.20;94.20;;;;;;5009917;28;20212;-79
2022/05/29 03:24:01;;;;;;;3.92;1.10;;;12.30;94.20;;;;;;4993969;28;20228;-79
2022/05/29 03:27:05;;;;;;;2.40;1.00;;;12.30;94.20;;;;;;5010614;28;20178;-79
2022/05/29 03:29:40;;;;;;;3.78;1.10;;;12.30;94.30;;;;;;4978050;28;20189;-79
2022/05/29 03:32:07;;;;;;;3.22;1.00;;;12.30;94.30;;;;;;5010395;28;20216;-79
2022/05/29 03:34:33;;;;;;;4.43;1.05;;;12.40;94.20;;;;;;5010099;28;20528;-79
2022/05/29 03:36:59;;;;;;;2.70;0.90;;;12.40;94.40;;;;;;5011472;28;20185;-79
2022/05/29 03:39:24;;;;;;;4.53;1.10;;;12.40;94.40;;;;;;5009894;28;20577;-79
2022/05/29 03:41:52;;;;;;;5.07;1.20;;;12.40;94.60;;;;;;5010115;28;20174;-80
2022/05/29 03:44:20;;;;;;;3.65;1.33;;;12.50;94.80;;;;;;5011347;28;20547;-79
2022/05/29 03:46:46;;;;;;;3.47;1.00;;;12.50;94.90;;;;;;5011351;28;20182;-79
2022/05/29 03:49:14;;;;;;;3.45;1.40;;;12.50;95.00;;;;;;5011602;28;20174;-79
2022/05/29 03:51:41;;;;;;;4.75;1.27;;;12.60;95.20;;;;;;5012152;28;20224;-79
2022/05/29 03:54:08;;;;;;;2.58;1.10;;;12.60;95.10;;;;;;5014141;28;20192;-79
2022/05/29 03:56:34;;;;;;;4.82;1.27;;;12.60;95.30;;;;;;5015159;28;20174;-80
2022/05/29 03:59:01;;;;;;;3.33;0.90;;;12.60;95.20;;;;;;5014967;28;20202;-79
2022/05/29 04:01:27;;;;;;;4.18;1.00;;;12.60;95.30;;;;;;5013989;28;20582;-78
2022/05/29 04:03:55;;;;;;;4.00;1.20;;;12.60;95.40;;;;;;5013217;28;20298;-78
2022/05/29 04:06:25;;;;;;;2.33;1.10;;;12.70;95.50;;;;;;5014823;28;20933;-78
2022/05/29 04:14:22;;;;;;;3.42;1.40;;;12.80;95.70;;;;;;5013627;28;20259;-77
2022/05/29 04:16:48;;;;;;;2.57;1.10;;;12.80;95.60;;;;;;5014504;28;20277;-78
2022/05/29 04:19:14;;;;;;;3.17;1.70;;;12.70;95.60;;;;;;5014296;28;20249;-78
2022/05/29 04:21:40;;;;;;;3.10;0.90;;;12.70;95.80;;;;;;5014387;28;20595;-79
2022/05/29 04:24:06;;;;;;;3.30;1.10;;;12.70;95.80;;;;;;5044076;28;21184;-79
2022/05/29 04:26:33;;;;;;;4.70;1.20;;;12.70;96.00;;;;;;5045626;28;20255;-79
2022/05/29 04:29:00;;;;;;;4.63;1.20;;;12.70;96.10;;;;;;5054391;28;20176;-79
2022/05/29 04:31:27;;;;;;;6.35;1.20;;;12.70;96.40;;;;;;5053101;28;20212;-79
2022/05/29 04:33:53;;;;;;;5.05;1.60;;;12.70;96.30;;;;;;5052723;28;20185;-79
2022/05/29 04:36:19;;;;;;;3.53;1.20;;;12.70;96.50;;;;;;5054056;28;20168;-79
2022/05/29 04:38:45;;;;;;;6.43;1.20;;;12.80;96.70;;;;;;5053854;28;20221;-79
2022/05/29 04:41:11;;;;;;;2.40;1.20;;;12.80;96.70;;;;;;5053186;28;20607;-79
2022/05/29 04:43:36;;;;;;;3.13;1.00;;;12.80;96.90;;;;;;5053682;28;20188;-79
2022/05/29 04:46:03;;;;;;;2.87;0.83;;;12.90;97.10;;;;;;5053664;28;20642;-79
2022/05/29 04:48:29;;;;;;;2.67;1.00;;;13.00;97.20;;;;;;5053715;28;20268;-79
2022/05/29 04:51:04;;;;;;;6.37;1.40;;;13.10;97.20;;;;;;5052844;28;20243;-79
2022/05/29 04:53:31;;;;;;;6.50;1.20;;;13.20;97.60;;;;;;5053576;28;20598;-79
2022/05/29 04:55:58;;;;;;;2.63;1.17;;;13.30;97.30;;;;;;5035984;28;20195;-79
2022/05/29 04:58:26;;;;;;;3.70;1.45;;;13.30;97.10;;;;;;5053649;28;20189;-80
2022/05/29 05:01:01;;;;;;;3.97;1.02;;;13.40;97.00;;;;;;5051476;28;20180;-80
2022/05/29 05:03:28;;;;;;;3.80;1.00;;;13.40;97.30;;;;;;5054794;28;20200;-80
2022/05/29 05:05:54;;;;;;;3.20;1.10;;;13.40;97.00;;;;;;5051542;28;20211;-80
2022/05/29 05:08:19;;;;;;;3.33;1.20;;;13.40;97.00;;;;;;5052530;28;20205;-80
2022/05/29 05:10:45;;;;;;;3.63;1.40;;;13.40;97.50;;;;;;5052627;28;20169;-80
2022/05/29 05:13:11;;;;;;;5.03;2.00;;;13.50;97.30;;;;;;5053263;28;20288;-80
2022/05/29 05:15:37;;;;;;;4.43;1.60;;;13.50;97.50;;;;;;5035267;28;20263;-80
2022/05/29 05:18:03;;;;;;;3.63;1.07;;;13.60;97.70;;;;;;5053126;28;20613;-81
2022/05/29 05:20:30;;;;;;;3.85;1.67;;;13.70;97.90;;;;;;5044127;28;20634;-80
2022/05/29 05:22:57;;;;;;;4.32;1.50;;;13.80;97.90;;;;;;5026944;28;20177;-80
2022/05/29 05:25:23;;;;;;;4.00;1.40;;;13.90;98.00;;;;;;5051949;28;20625;-80
2022/05/29 05:27:49;;;;;;;6.22;1.40;;;14.00;97.80;;;;;;5053177;28;20196;-80
2022/05/29 05:30:15;;;;;;;4.93;1.60;;;14.10;97.80;;;;;;5050850;28;20231;-79
2022/05/29 05:32:42;;;;;;;3.50;1.30;;;14.10;97.80;;;;;;5051906;28;20674;-79
2022/05/29 05:35:08;;;;;;;6.15;1.55;;;14.20;97.90;;;;;;5053266;28;20626;-79
2022/05/29 05:37:35;;;;;;;6.97;1.40;;;14.30;98.10;;;;;;5036157;28;20201;-81
2022/05/29 05:40:04;;;;;;;2.42;1.20;;;14.40;98.10;;;;;;5053255;28;20184;-80
2022/05/29 05:42:30;;;;;;;3.22;1.30;;;14.60;98.10;;;;;;5053033;28;20184;-80
2022/05/29 05:44:56;;;;;;;3.30;1.60;;;14.80;98.30;;;;;;5051694;28;20208;-80
2022/05/29 05:47:22;;;;;;;3.37;1.60;;;15.10;98.50;;;;;;5035646;28;20165;-80
2022/05/29 05:49:51;;;;;;;5.82;1.60;;;15.30;98.60;;;;;;5051664;28;20559;-81
2022/05/29 05:52:18;;;;;;;6.17;1.50;;;15.60;98.80;;;;;;5051564;28;20173;-81
2022/05/29 05:54:44;;;;;;;3.67;1.20;;;16.00;98.80;;;;;;5034370;28;20626;-81
2022/05/29 05:57:10;;;;;;;5.27;1.70;;;16.60;99.10;;;;;;5052592;28;20188;-78
2022/05/29 05:59:38;;;;;;;4.27;1.50;;;17.50;99.50;;;;;;5050430;28;20559;-81
2022/05/29 06:02:05;;;;;;;4.10;1.63;;;18.40;99.70;;;;;;5052174;28;20576;-78
2022/05/29 06:04:31;;;;;;;9.23;1.50;;;19.40;98.30;;;;;;5052164;28;20734;-78
2022/05/29 06:06:57;;;;;;;5.40;1.60;;;20.00;97.30;;;;;;5052248;28;20678;-78
2022/05/29 06:09:23;;;;;;;2.93;1.00;;;20.80;96.80;;;;;;5051653;28;20256;-78
2022/05/29 06:11:49;;;;;;;2.83;1.00;;;21.50;96.20;;;;;;5051852;28;20199;-79
2022/05/29 06:14:14;;;;;;;5.60;2.27;;;21.80;94.30;;;;;;5050837;28;20611;-79
2022/05/29 06:16:40;;;;;;;5.50;1.07;;;21.90;93.30;;;;;;5054129;28;20177;-78
2022/05/29 06:19:06;;;;;;;3.30;1.20;;;21.90;92.20;;;;;;5051739;28;20249;-78
2022/05/29 06:21:35;;;;;;;3.77;1.03;;;22.10;91.40;;;;;;5028790;28;20170;-78
2022/05/29 06:24:02;;;;;;;2.37;1.00;;;22.30;90.70;;;;;;5022314;28;20625;-78
2022/05/29 06:26:28;;;;;;;3.07;1.00;;;22.70;91.00;;;;;;5029212;28;21198;-77
2022/05/29 06:28:54;;;;;;;2.33;0.93;;;22.90;90.00;;;;;;5031769;28;20589;-77
2022/05/29 06:31:19;;;;;;;3.47;1.10;;;22.80;88.00;;;;;;5031349;28;20188;-77
2022/05/29 06:33:45;;;;;;;4.00;1.30;;;22.50;85.40;;;;;;5030965;28;20240;-78
2022/05/29 06:36:14;;;;;;;4.17;1.10;;;22.20;84.10;;;;;;5014608;28;20177;-77
2022/05/29 06:38:41;;;;;;;3.00;1.00;;;21.90;82.80;;;;;;5031787;28;20201;-77
2022/05/29 06:41:10;;;;;;;4.73;0.93;;;21.40;82.00;;;;;;5031068;28;20568;-77
2022/05/29 06:43:36;;;;;;;2.20;1.00;;;21.10;82.10;;;;;;5031543;28;20929;-77
2022/05/29 06:46:03;;;;;;;4.30;1.10;;;20.80;82.00;;;;;;5029972;28;20560;-77
2022/05/29 06:48:33;;;;;;;2.93;0.90;;;20.40;81.70;;;;;;5027581;28;20593;-77
2022/05/29 06:51:11;;;;;;;2.70;0.90;;;20.10;81.80;;;;;;5029908;28;20596;-77
2022/05/29 06:53:37;;;;;;;2.20;0.80;;;19.80;82.50;;;;;;5030525;28;20627;-78
2022/05/29 06:56:04;;;;;;;3.60;0.80;;;19.70;82.60;;;;;;5030958;28;20660;-77
2022/05/29 06:58:29;;;;;;;2.03;0.90;;;19.50;82.60;;;;;;5029939;28;20639;-78
2022/05/29 07:09:09;;;;;;;2.13;0.90;;;18.80;83.20;;;;;;5031291;28;20659;-78
2022/05/29 07:11:39;;;;;;;2.63;0.90;;;18.60;83.30;;;;;;5031418;28;20707;-78
2022/05/29 07:14:06;;;;;;;2.20;0.93;;;18.50;83.60;;;;;;5030571;28;20618;-78
2022/05/29 07:16:35;;;;;;;2.67;0.83;;;18.40;84.10;;;;;;5031829;28;20585;-78
2022/05/29 07:19:01;;;;;;;2.50;1.00;;;18.30;84.60;;;;;;5031711;28;20616;-78
2022/05/29 07:21:33;;;;;;;6.83;1.03;;;18.20;84.90;;;;;;5031156;28;20565;-77
2022/05/29 07:23:59;;;;;;;3.27;1.00;;;18.10;84.70;;;;;;5031360;28;20708;-78
2022/05/29 07:26:25;;;;;;;4.80;0.90;;;18.00;84.60;;;;;;5031329;28;20589;-77
2022/05/29 07:28:52;;;;;;;2.90;1.20;;;17.90;84.80;;;;;;5034546;28;20572;-77
2022/05/29 07:31:19;;;;;;;3.63;1.30;;;17.70;84.80;;;;;;5036067;28;20917;-78
2022/05/29 07:33:45;;;;;;;4.80;1.30;;;17.60;85.00;;;;;;5036216;28;20748;-78
2022/05/29 07:36:12;;;;;;;2.63;0.90;;;17.50;85.30;;;;;;5034993;28;20568;-78
2022/05/29 07:38:39;;;;;;;3.70;1.17;;;17.40;85.70;;;;;;5033960;28;20597;-78
2022/05/29 07:43:18;;;;;;;4.45;1.10;;;17.20;85.80;;;;;;5031825;28;20668;-78
2022/05/29 07:43:52;;;;;;;2.23;1.00;;;17.10;86.20;;;;;;5029927;28;20197;-77
2022/05/29 07:46:18;;;;;;;8.67;1.10;;;17.00;86.70;;;;;;5033658;28;21115;-77
2022/05/29 07:48:44;;;;;;;5.97;2.27;;;16.90;87.60;;;;;;5032355;28;20595;-78
2022/05/29 07:51:10;;;;;;;5.43;1.10;;;16.90;88.10;;;;;;5033039;28;20637;-78
2022/05/29 07:53:37;;;;;;;2.40;1.20;;;16.90;89.00;;;;;;5033738;28;20616;-77
2022/05/29 07:56:04;;;;;;;2.60;0.73;;;17.00;90.10;;;;;;5015771;28;20583;-79
2022/05/29 07:58:29;;;;;;;2.17;0.90;;;17.20;90.50;;;;;;5040771;28;20762;-78
2022/05/29 08:00:55;;;;;;;2.50;0.80;;;17.30;90.40;;;;;;5032849;28;21062;-80
2022/05/29 08:03:23;;;;;;;1.90;0.80;;;17.40;90.30;;;;;;5032537;28;20201;-79
2022/05/29 08:05:49;;;;;;;1.93;0.90;;;17.50;90.20;;;;;;5033995;28;20161;-81
2022/05/29 08:08:15;;;;;;;3.07;0.80;;;17.50;90.20;;;;;;5035977;28;20608;-80
2022/05/29 08:10:42;;;;;;;3.30;0.80;;;17.50;90.20;;;;;;5034027;28;20612;-79
2022/05/29 08:13:09;;;;;;;3.57;1.13;;;17.40;90.50;;;;;;5032980;28;20706;-79
2022/05/29 08:15:36;;;;;;;3.23;0.83;;;17.30;90.10;;;;;;5031830;28;20936;-79
2022/05/29 08:18:05;;;;;;;3.10;1.03;;;17.30;90.00;;;;;;5030918;28;20638;-79
2022/05/29 08:20:31;;;;;;;2.10;0.80;;;17.20;89.70;;;;;;5032187;28;20589;-79
2022/05/29 08:22:57;;;;;;;4.07;1.13;;;17.00;89.60;;;;;;5034398;28;20581;-78
2022/05/29 08:30:54;;;;;;;3.00;0.90;;;16.90;90.10;;;;;;5025954;28;20588;-78
2022/05/29 08:33:23;;;;;;;3.10;0.90;;;16.90;90.40;;;;;;5034539;28;20616;-78
2022/05/29 08:36:03;;;;;;;3.00;0.80;;;17.00;90.90;;;;;;5047232;28;20606;-78
2022/05/29 08:38:30;;;;;;;2.33;0.87;;;17.20;91.30;;;;;;5043497;28;21222;-75
2022/05/29 08:41:06;;;;;;;4.30;0.90;;;17.60;91.90;;;;;;5039152;28;20585;-76
2022/05/29 08:43:37;;;;;;;3.30;1.30;;;17.90;91.80;;;;;;5044605;28;20711;-75
2022/05/29 08:46:27;;;;;;;2.90;0.87;;;18.40;92.40;;;;;;5056746;28;20564;-76
2022/05/29 08:48:56;;;;;;;1.70;0.77;;;19.20;93.10;;;;;;5049224;28;21056;-76
2022/05/29 08:52:07;;;;;;;1.77;0.63;;;20.10;93.50;;;;;;5008509;28;20665;-75
2022/05/29 08:54:54;;;;;;;1.43;0.50;;;20.70;92.30;;;;;;5042600;28;21034;-75
2022/05/29 08:57:48;;;;;;;2.37;0.80;;;21.20;91.60;;;;;;5049760;28;20611;-75
2022/05/29 09:00:29;;;;;;;1.50;0.53;;;21.70;90.20;;;;;;5049149;28;21140;-76
2022/05/29 09:03:22;;;;;;;1.70;0.60;;;21.90;89.40;;;;;;5044042;28;20737;-75
2022/05/29 09:06:03;;;;;;;2.03;0.70;;;22.10;87.80;;;;;;5051406;28;20567;-76
2022/05/29 09:08:39;;;;;;;2.00;0.77;;;22.70;87.90;;;;;;5060042;22;21153;-72
2022/05/29 09:11:16;;;;;;;2.17;0.70;;;23.20;86.80;;;;;;5043148;28;20596;-73
2022/05/29 09:13:50;;;;;;;1.73;0.70;;;23.60;85.80;;;;;;5017061;28;20599;-73
2022/05/29 09:16:20;;;;;;;1.63;0.80;;;23.70;83.60;;;;;;5042029;28;20583;-73
2022/05/29 09:19:11;;;;;;;2.20;0.70;;;23.80;81.30;;;;;;5045513;28;20627;-73
2022/05/29 09:21:54;;;;;;;1.87;0.73;;;23.70;79.30;;;;;;5045647;28;20623;-73
2022/05/29 09:24:57;;;;;;;1.67;0.80;;;23.50;77.40;;;;;;5042442;28;20577;-72
2022/05/29 09:27:23;;;;;;;3.20;0.90;;;23.30;77.20;;;;;;5035262;28;21403;-73
2022/05/29 09:29:53;;;;;;;3.63;1.47;;;23.20;77.40;;;;;;5017662;28;20615;-72
2022/05/29 09:32:22;;;;;;;1.73;0.80;;;23.00;76.10;;;;;;5008486;28;20629;-73
2022/05/29 09:35:03;;;;;;;2.73;1.30;;;22.80;76.30;;;;;;5044875;28;20584;-72
2022/05/29 09:37:35;;;;;;;2.00;0.70;;;22.80;76.90;;;;;;5024774;28;21002;-73
2022/05/29 09:40:03;;;;;;;2.63;0.70;;;22.80;76.80;;;;;;5051782;28;21170;-73
2022/05/29 09:42:36;;;;;;;1.43;0.60;;;22.70;76.20;;;;;;5052715;28;20634;-73
2022/05/29 09:45:11;;;;;;;1.80;0.70;;;22.60;75.60;;;;;;5052661;28;20903;-73
2022/05/29 09:50:54;;;;;;;1.70;0.70;;;22.30;74.90;;;;;;4972960;28;20715;-73
2022/05/29 09:53:27;;;;;;;2.27;0.90;;;22.10;74.60;;;;;;4990761;28;20601;-73
2022/05/29 09:56:01;;;;;;;3.00;1.10;;;22.10;74.60;;;;;;5010703;28;20596;-73
2022/05/29 09:58:33;;;;;;;2.00;1.13;;;22.30;75.40;;;;;;5051757;28;20631;-72
2022/05/29 10:01:04;;;;;;;2.70;1.00;;;22.50;76.40;;;;;;5051346;28;20571;-72
2022/05/29 10:03:41;;;;;;;1.90;1.20;;;22.80;76.60;;;;;;5052158;28;20687;-72
2022/05/29 10:06:24;;;;;;;3.20;1.10;;;23.10;76.20;;;;;;5051657;28;20567;-73
2022/05/29 10:08:52;;;;;;;4.43;0.90;;;23.40;75.50;;;;;;5051848;28;20661;-72
2022/05/29 10:11:31;;;;;;;3.20;0.90;;;23.70;75.70;;;;;;5051424;28;21197;-73
2022/05/29 10:14:00;;;;;;;2.80;2.00;;;23.90;74.30;;;;;;5051942;28;20563;-72
2022/05/29 10:16:31;;;;;;;2.53;1.80;;;24.00;72.60;;;;;;5051931;28;20666;-72
2022/05/29 10:18:57;;;;;;;2.73;1.40;;;24.00;69.70;;;;;;5033986;28;21257;-74
2022/05/29 10:21:29;;;;;;;1.90;0.90;;;23.70;69.20;;;;;;5050674;28;20567;-73
2022/05/29 10:24:18;;;;;;;7.63;1.37;;;23.30;67.80;;;;;;5051871;28;20572;-74
2022/05/29 10:26:57;;;;;;;3.30;0.90;;;22.90;67.70;;;;;;5051795;28;20564;-74
2022/05/29 10:29:32;;;;;;;3.83;0.93;;;22.40;67.90;;;;;;5051160;28;20713;-74
2022/05/29 10:32:00;;;;;;;4.37;0.90;;;21.80;68.50;;;;;;5033874;28;20927;-74
2022/05/29 10:34:26;;;;;;;3.30;0.80;;;21.30;69.00;;;;;;5051285;28;21134;-73
2022/05/29 10:36:52;;;;;;;2.60;0.80;;;20.90;69.90;;;;;;5034094;28;20564;-73
2022/05/29 10:39:20;;;;;;;2.33;0.80;;;20.40;70.50;;;;;;5050983;28;20200;-73
2022/05/29 10:41:47;;;;;;;2.20;0.70;;;19.90;71.20;;;;;;5050881;28;20948;-73
2022/05/29 10:44:34;;;;;;;2.20;0.70;;;19.50;71.70;;;;;;5051593;28;20589;-73
2022/05/29 10:47:42;;;;;;;4.20;0.80;;;19.10;73.10;;;;;;5037374;28;20584;-73
2022/05/29 10:50:34;;;;;;;2.00;0.67;;;18.80;77.10;;;;;;5032479;28;20958;-73
2022/05/29 10:53:02;;;;;;;1.80;0.73;;;18.70;76.70;;;;;;5033829;28;20563;-73
2022/05/29 10:55:54;;;;;;;1.97;0.60;;;18.70;78.10;;;;;;5051330;28;20556;-73
2022/05/29 10:58:38;;;;;;;4.00;0.60;;;18.80;81.40;;;;;;5033516;28;20630;-73
2022/05/29 11:04:04;;;;;;;2.67;0.50;;;19.60;83.10;;;;;;5046992;28;21189;-74
2022/05/29 11:06:35;;;;;;;2.63;0.60;;;20.20;85.40;;;;;;5023802;28;21512;-74
2022/05/29 11:09:22;;;;;;;1.67;0.53;;;20.80;87.50;;;;;;5025053;28;21042;-74
2022/05/29 11:12:15;;;;;;;1.30;0.60;;;21.50;87.90;;;;;;5051076;28;20675;-74
2022/05/29 11:14:46;;;;;;;3.20;1.10;;;22.10;87.60;;;;;;5051129;28;20578;-74
2022/05/29 11:17:22;;;;;;;2.60;0.80;;;22.80;87.10;;;;;;5050715;28;20567;-74
2022/05/29 11:20:14;;;;;;;2.63;1.20;;;23.40;87.50;;;;;;5014948;28;20729;-74
2022/05/29 11:22:55;;;;;;;1.70;0.80;;;24.10;79.70;;;;;;5039747;28;20170;-74
2022/05/29 11:25:43;;;;;;;2.87;0.70;;;24.50;79.50;;;;;;5031808;28;20621;-74
2022/05/29 11:28:23;;;;;;;8.43;0.87;;;24.80;77.90;;;;;;5051130;28;20573;-73
2022/05/29 11:31:19;;;;;;;1.70;0.70;;;24.80;74.30;;;;;;5050230;28;20978;-73
2022/05/29 11:34:12;;;;;;;2.90;0.90;;;24.40;70.60;;;;;;5050620;28;20570;-73
2022/05/29 11:36:44;;;;;;;4.33;1.20;;;23.90;69.40;;;;;;5051052;28;20973;-73
2022/05/29 11:39:43;;;;;;;3.63;1.30;;;23.30;68.70;;;;;;5050526;28;20618;-73
2022/05/29 11:42:27;;;;;;;2.33;0.90;;;22.80;68.70;;;;;;5050867;28;21128;-73
2022/05/29 11:45:04;;;;;;;2.23;0.70;;;22.40;69.60;;;;;;5051002;28;20564;-73
2022/05/29 11:53:45;;;;;;;1.93;0.70;;;21.80;72.00;;;;;;5050969;28;21057;-73
2022/05/29 11:56:18;;;;;;;3.10;0.77;;;21.70;71.50;;;;;;5033462;28;20652;-73
2022/05/29 11:58:49;;;;;;;1.90;0.80;;;21.60;71.40;;;;;;5050633;28;20726;-73
2022/05/29 12:05:27;;;;;;;2.70;1.10;;;21.20;72.00;;;;;;5050888;28;20570;-78
2022/05/29 12:08:02;;;;;;;2.27;0.60;;;20.50;71.40;;;;;;5050598;28;20666;-78
2022/05/29 12:10:36;;;;;;;1.97;0.50;;;19.70;70.50;;;;;;5031815;28;20594;-78
2022/05/29 12:13:09;;;;;;;1.77;0.40;;;19.00;69.90;;;;;;5050842;28;21164;-78
2022/05/29 12:15:35;;;;;;;1.50;0.50;;;18.20;71.50;;;;;;5053947;28;20620;-78
2022/05/29 12:18:06;;;;;;;2.13;0.60;;;17.60;72.70;;;;;;5054092;28;21259;-78
2022/05/29 12:21:03;;;;;;;1.50;0.50;;;17.20;76.80;;;;;;5035729;28;20575;-78
2022/05/29 12:23:40;;;;;;;1.57;0.50;;;16.90;79.40;;;;;;5020540;28;20657;-78
2022/05/29 12:26:12;;;;;;;1.27;0.50;;;16.70;82.30;;;;;;5054147;28;20617;-78
2022/05/29 12:28:50;;;;;;;1.20;0.40;;;16.60;85.50;;;;;;5053825;28;20953;-78
2022/05/29 12:31:26;;;;;;;1.20;0.50;;;16.60;87.10;;;;;;5052878;28;21084;-78
2022/05/29 12:33:52;;;;;;;1.10;0.47;;;16.70;89.30;;;;;;5054099;28;20579;-78
2022/05/29 12:36:29;;;;;;;1.50;0.70;;;16.70;89.80;;;;;;5053938;28;20578;-78
2022/05/29 12:39:15;;;;;;;2.10;0.90;;;16.80;90.90;;;;;;5053720;28;21012;-78
2022/05/29 12:42:16;;;;;;;1.40;0.63;;;17.00;92.50;;;;;;5035794;28;20617;-78
2022/05/29 12:45:10;;;;;;;1.30;0.70;;;17.20;94.00;;;;;;5035590;28;20571;-78
2022/05/29 12:47:50;;;;;;;1.70;0.80;;;17.40;93.70;;;;;;5053670;28;20559;-77
2022/05/29 12:51:00;;;;;;;1.80;0.90;;;17.60;94.90;;;;;;5051969;28;20602;-78
2022/05/29 12:53:45;;;;;;;2.33;0.80;;;17.70;94.20;;;;;;5023192;28;20605;-78
2022/05/29 12:56:24;;;;;;;1.90;0.77;;;17.80;94.30;;;;;;5053747;28;20982;-78
2022/05/29 12:59:14;;;;;;;1.50;0.70;;;18.00;94.40;;;;;;5052926;28;20638;-78
2022/05/29 13:02:14;;;;;;;1.90;0.80;;;18.10;94.90;;;;;;5053205;28;20571;-78
2022/05/29 13:04:58;;;;;;;2.37;1.30;;;18.20;94.70;;;;;;5053361;28;20564;-78
2022/05/29 13:07:33;;;;;;;3.03;1.37;;;18.40;94.90;;;;;;5053632;28;20629;-78
2022/05/29 13:10:25;;;;;;;2.40;1.20;;;18.40;94.60;;;;;;5034706;28;21193;-78
2022/05/29 13:13:12;;;;;;;2.00;0.73;;;18.50;95.50;;;;;;5053459;28;20572;-75
2022/05/29 13:15:39;;;;;;;2.70;1.03;;;18.60;95.70;;;;;;5035526;28;20579;-75
2022/05/29 13:18:23;;;;;;;3.47;1.23;;;18.80;95.40;;;;;;5053040;28;20666;-77
2022/05/29 13:21:06;;;;;;;2.57;0.80;;;18.90;95.50;;;;;;5052354;28;20576;-77
2022/05/29 13:23:35;;;;;;;2.13;1.23;;;19.00;95.50;;;;;;5053106;28;20916;-77
2022/05/29 13:26:02;;;;;;;1.93;0.90;;;19.00;95.10;;;;;;5052235;28;20572;-77
2022/05/29 13:29:05;;;;;;;2.67;0.90;;;19.00;95.10;;;;;;5034720;28;20607;-77
2022/05/29 13:31:52;;;;;;;1.60;0.90;;;19.00;95.30;;;;;;5046081;28;20697;-77
2022/05/29 13:34:30;;;;;;;2.10;0.80;;;19.00;95.10;;;;;;5052969;28;20588;-77
2022/05/29 13:37:00;;;;;;;2.00;0.83;;;19.00;96.00;;;;;;5018679;28;20582;-77
2022/05/29 13:39:51;;;;;;;1.83;0.90;;;19.00;96.20;;;;;;5052045;28;20623;-77
2022/05/29 13:42:38;;;;;;;2.53;0.87;;;19.20;97.00;;;;;;5052295;28;20570;-77
2022/05/29 13:45:19;;;;;;;2.57;0.80;;;19.20;96.30;;;;;;5034853;28;20666;-77
2022/05/29 13:48:07;;;;;;;2.53;1.53;;;19.30;96.80;;;;;;5052751;28;20944;-78
2022/05/29 13:50:40;;;;;;;2.70;1.87;;;19.40;96.90;;;;;;5052084;28;21118;-77
2022/05/29 13:53:18;;;;;;;2.80;2.13;;;19.50;95.70;;;;;;5052704;28;20973;-77
2022/05/29 13:55:43;;;;;;;2.00;0.83;;;19.50;94.60;;;;;;5052555;28;20988;-77
2022/05/29 14:04:34;;;;;;;1.30;0.70;;;19.40;93.90;;;;;;5052438;28;20555;-77